Time;durP1;ratioP1;P1;durP2;ratioP2;P2;SDS_P1;SDS_P2;PMS_P1;PMS_P2;Temp;Humidity;BMP_temperature;BMP_pressure;BME280_temperature;BME280_humidity;BME280_pressure;Samples;Min_cycle;Max_cycle;Signal;HPM_P1;HPM_P2
2023/10/11 00:00:37;;;;;;;46.65;5.68;;;;;;;;;;5112288;28;20032;-45
2023/10/11 00:03:05;;;;;;;32.30;5.97;;;;;;;;;;5111752;28;20039;-43
2023/10/11 00:05:37;;;;;;;41.20;6.05;;;;;;;;;;5112656;28;20023;-42
2023/10/11 00:08:04;;;;;;;50.35;6.30;;;;;;;;;;5112507;28;20023;-40
2023/10/11 00:10:31;;;;;;;34.92;6.03;;;;;;;;;;5111877;28;20062;-39
2023/10/11 00:12:58;;;;;;;50.95;6.05;;;;;;;;;;5111027;28;20043;-41
2023/10/11 00:15:28;;;;;;;79.90;8.75;;;;;;;;;;5112265;28;20019;-40
2023/10/11 00:17:59;;;;;;;72.90;6.75;;;;;;;;;;5112330;28;20035;-40
2023/10/11 00:20:31;;;;;;;78.68;9.73;;;;;;;;;;5111471;28;20046;-42
2023/10/11 00:23:01;;;;;;;71.45;8.27;;;;;;;;;;5110663;28;20043;-39
2023/10/11 00:25:28;;;;;;;88.10;9.05;;;;;;;;;;5089030;28;20042;-39
2023/10/11 00:27:59;;;;;;;76.75;8.63;;;;;;;;;;5112072;28;20027;-40
2023/10/11 00:30:29;;;;;;;56.22;7.82;;;;;;;;;;5110673;28;20481;-37
2023/10/11 00:32:57;;;;;;;65.55;7.82;;;;;;;;;;5112340;28;20062;-40
2023/10/11 00:35:27;;;;;;;50.03;6.78;;;;;;;;;;5112262;28;20028;-41
2023/10/11 00:37:54;;;;;;;64.47;7.45;;;;;;;;;;5111807;28;20108;-43
2023/10/11 00:40:32;;;;;;;64.72;7.38;;;;;;;;;;5111751;28;20028;-41
2023/10/11 00:43:02;;;;;;;48.13;6.93;;;;;;;;;;5111750;28;20044;-43
2023/10/11 00:45:36;;;;;;;48.00;6.68;;;;;;;;;;5111501;28;20031;-39
2023/10/11 00:48:07;;;;;;;58.35;7.30;;;;;;;;;;5111824;28;20164;-42
2023/10/11 00:50:35;;;;;;;51.03;6.93;;;;;;;;;;5111170;28;20504;-44
2023/10/11 00:53:02;;;;;;;49.70;6.68;;;;;;;;;;5098930;28;20035;-42
2023/10/11 00:55:29;;;;;;;37.88;6.82;;;;;;;;;;5111627;28;20082;-41
2023/10/11 00:57:59;;;;;;;40.92;6.13;;;;;;;;;;5111240;28;20393;-42
2023/10/11 01:00:26;;;;;;;38.60;5.85;;;;;;;;;;5111213;28;20374;-41
2023/10/11 01:02:54;;;;;;;44.35;6.47;;;;;;;;;;5111862;28;20032;-42
2023/10/11 01:05:22;;;;;;;36.78;6.82;;;;;;;;;;5111982;28;20111;-42
2023/10/11 01:07:54;;;;;;;53.30;7.63;;;;;;;;;;5111981;28;20498;-39
2023/10/11 01:10:23;;;;;;;47.78;6.68;;;;;;;;;;5108466;28;20064;-40
2023/10/11 01:12:51;;;;;;;42.50;6.78;;;;;;;;;;5111563;28;20106;-41
2023/10/11 01:15:23;;;;;;;43.60;6.15;;;;;;;;;;5110465;28;20153;-42
2023/10/11 01:17:50;;;;;;;47.20;7.28;;;;;;;;;;5111352;28;20039;-40
2023/10/11 01:20:19;;;;;;;36.42;7.05;;;;;;;;;;5098566;28;20034;-40
2023/10/11 01:22:46;;;;;;;38.17;6.20;;;;;;;;;;5112991;27;20408;-40
2023/10/11 01:25:18;;;;;;;41.50;6.95;;;;;;;;;;5107524;27;20115;-40
2023/10/11 01:27:45;;;;;;;;;;;;;;;;;;5111149;28;20168;-43
2023/10/11 01:30:12;;;;;;;33.22;6.35;;;;;;;;;;5111136;28;19988;-41
2023/10/11 01:32:42;;;;;;;32.60;6.22;;;;;;;;;;5114691;28;20113;-42
2023/10/11 01:35:18;;;;;;;32.47;5.88;;;;;;;;;;5117055;28;20458;-41
2023/10/11 01:37:46;;;;;;;34.05;6.05;;;;;;;;;;5107030;28;20035;-41
2023/10/11 01:40:20;;;;;;;35.55;5.85;;;;;;;;;;5118477;28;20035;-42
2023/10/11 01:42:51;;;;;;;37.85;5.30;;;;;;;;;;5114630;28;20036;-44
2023/10/11 01:45:18;;;;;;;44.72;5.93;;;;;;;;;;5110058;28;20119;-42
2023/10/11 01:47:46;;;;;;;31.90;5.68;;;;;;;;;;5110131;28;20039;-41
2023/10/11 01:50:14;;;;;;;37.83;6.03;;;;;;;;;;5112480;28;20099;-43
2023/10/11 01:52:41;;;;;;;30.33;5.63;;;;;;;;;;5090650;28;20036;-41
2023/10/11 01:55:13;;;;;;;28.92;4.82;;;;;;;;;;5109888;28;20059;-41
2023/10/11 01:57:45;;;;;;;18.90;3.92;;;;;;;;;;5094170;28;20035;-41
2023/10/11 02:00:15;;;;;;;24.83;4.53;;;;;;;;;;5100879;28;20447;-42
2023/10/11 02:02:55;;;;;;;24.42;4.95;;;;;;;;;;5100621;28;20669;-39
2023/10/11 02:05:23;;;;;;;23.10;4.45;;;;;;;;;;5102225;28;20109;-41
2023/10/11 02:07:50;;;;;;;29.83;5.22;;;;;;;;;;5099785;28;20133;-41
2023/10/11 02:10:36;;;;;;;26.20;4.78;;;;;;;;;;5081096;28;20058;-41
2023/10/11 02:13:04;;;;;;;22.85;4.60;;;;;;;;;;5100893;28;20485;-41
2023/10/11 02:15:31;;;;;;;27.50;5.07;;;;;;;;;;5099454;28;20116;-42
2023/10/11 02:17:58;;;;;;;33.53;4.82;;;;;;;;;;5101462;28;20015;-41
2023/10/11 02:20:25;;;;;;;33.25;4.85;;;;;;;;;;5100980;28;20024;-43
2023/10/11 02:22:59;;;;;;;37.10;5.70;;;;;;;;;;5099200;28;20055;-42
2023/10/11 02:25:27;;;;;;;25.08;4.18;;;;;;;;;;5099931;28;20542;-41
2023/10/11 02:27:54;;;;;;;25.05;4.10;;;;;;;;;;5103415;28;20028;-41
2023/10/11 02:30:24;;;;;;;36.35;4.78;;;;;;;;;;5104496;28;20493;-41
2023/10/11 02:33:01;;;;;;;26.67;4.57;;;;;;;;;;5094857;28;20093;-41
2023/10/11 02:35:31;;;;;;;30.08;4.93;;;;;;;;;;5094730;28;20454;-41
2023/10/11 02:38:02;;;;;;;29.63;4.10;;;;;;;;;;5094606;28;20036;-40
2023/10/11 02:40:30;;;;;;;25.05;4.53;;;;;;;;;;5094554;28;20028;-41
2023/10/11 02:42:57;;;;;;;29.88;4.95;;;;;;;;;;5094611;28;20036;-41
2023/10/11 02:45:24;;;;;;;40.10;4.63;;;;;;;;;;5094544;28;20031;-41
2023/10/11 02:47:59;;;;;;;22.05;4.22;;;;;;;;;;5094651;28;20360;-40
2023/10/11 02:50:26;;;;;;;29.63;4.20;;;;;;;;;;5094261;28;20117;-41
2023/10/11 02:52:59;;;;;;;30.50;4.70;;;;;;;;;;5094479;28;20493;-40
2023/10/11 02:55:26;;;;;;;38.42;4.57;;;;;;;;;;5094229;28;20028;-40
2023/10/11 02:58:06;;;;;;;28.23;4.18;;;;;;;;;;5094243;28;20028;-41
2023/10/11 03:00:36;;;;;;;28.35;3.97;;;;;;;;;;5094232;28;20039;-40
2023/10/11 03:03:07;;;;;;;22.63;4.03;;;;;;;;;;5094120;28;20377;-40
2023/10/11 03:05:37;;;;;;;21.63;3.78;;;;;;;;;;5094026;28;20505;-40
2023/10/11 03:08:13;;;;;;;44.53;4.97;;;;;;;;;;5093990;28;20390;-41
2023/10/11 03:10:45;;;;;;;35.28;4.80;;;;;;;;;;5094067;28;20506;-41
2023/10/11 03:13:41;;;;;;;33.42;4.13;;;;;;;;;;5094038;28;20037;-40
2023/10/11 03:16:01;;;;;;;30.58;4.20;;;;;;;;;;5093231;28;20040;-40
2023/10/11 03:18:31;;;;;;;38.72;4.45;;;;;;;;;;5093978;28;20103;-41
2023/10/11 03:21:08;;;;;;;26.38;4.22;;;;;;;;;;5093604;28;20028;-40
2023/10/11 03:23:47;;;;;;;24.10;4.18;;;;;;;;;;5093808;28;20032;-41
2023/10/11 03:26:33;;;;;;;26.63;3.88;;;;;;;;;;5093592;28;20084;-40
2023/10/11 03:29:03;;;;;;;21.10;3.38;;;;;;;;;;5093905;28;20098;-40
2023/10/11 03:31:31;;;;;;;24.30;4.05;;;;;;;;;;5093616;28;20032;-40
2023/10/11 03:34:00;;;;;;;19.63;3.17;;;;;;;;;;5093594;28;20043;-40
2023/10/11 03:36:43;;;;;;;45.22;4.50;;;;;;;;;;5093596;28;20039;-40
2023/10/11 03:39:10;;;;;;;27.92;3.75;;;;;;;;;;5093103;28;20734;-40
2023/10/11 03:41:47;;;;;;;29.55;4.13;;;;;;;;;;5093504;28;20474;-41
2023/10/11 03:44:17;;;;;;;21.23;3.75;;;;;;;;;;5093541;28;20424;-41
2023/10/11 03:46:47;;;;;;;37.35;4.07;;;;;;;;;;5093335;28;20073;-40
2023/10/11 03:51:48;;;;;;;25.33;4.18;;;;;;;;;;5093644;28;20032;-40
2023/10/11 03:54:22;;;;;;;32.40;4.50;;;;;;;;;;5093083;28;20047;-40
2023/10/11 03:56:55;;;;;;;24.50;3.53;;;;;;;;;;5093393;28;20148;-40
2023/10/11 03:59:26;;;;;;;35.58;4.28;;;;;;;;;;5093058;28;20062;-40
2023/10/11 04:01:54;;;;;;;35.45;4.78;;;;;;;;;;5092979;28;20043;-41
2023/10/11 04:04:21;;;;;;;30.40;3.70;;;;;;;;;;5093147;28;20035;-40
2023/10/11 04:06:51;;;;;;;24.58;4.05;;;;;;;;;;5093173;28;20016;-42
2023/10/11 04:09:31;;;;;;;23.95;3.38;;;;;;;;;;5093157;28;20036;-40
2023/10/11 04:12:03;;;;;;;24.45;3.30;;;;;;;;;;5092900;28;20040;-40
2023/10/11 04:14:40;;;;;;;36.63;4.15;;;;;;;;;;5092779;28;20042;-40
2023/10/11 04:19:50;;;;;;;21.55;3.33;;;;;;;;;;5093048;28;20402;-40
2023/10/11 04:22:31;;;;;;;34.05;4.13;;;;;;;;;;5074331;28;20525;-40
2023/10/11 04:25:06;;;;;;;27.52;3.47;;;;;;;;;;5092667;28;20486;-40
2023/10/11 04:30:17;;;;;;;26.77;3.38;;;;;;;;;;5093069;28;20482;-40
2023/10/11 04:32:47;;;;;;;17.50;3.00;;;;;;;;;;5092625;28;20039;-41
2023/10/11 04:35:25;;;;;;;21.52;3.47;;;;;;;;;;5075037;28;20016;-40
2023/10/11 04:37:55;;;;;;;29.20;4.55;;;;;;;;;;5092438;28;20513;-40
2023/10/11 04:43:05;;;;;;;24.40;3.33;;;;;;;;;;5092427;28;20037;-40
2023/10/11 04:45:44;;;;;;;19.50;3.22;;;;;;;;;;5092333;28;20120;-40
2023/10/11 04:48:15;;;;;;;46.00;4.78;;;;;;;;;;5092434;28;20107;-40
2023/10/11 04:50:45;;;;;;;38.10;3.78;;;;;;;;;;5091587;28;20059;-40
2023/10/11 04:53:19;;;;;;;34.70;3.47;;;;;;;;;;5092222;28;20032;-40
2023/10/11 04:56:15;;;;;;;21.08;3.10;;;;;;;;;;5092074;28;20479;-40
2023/10/11 04:58:42;;;;;;;27.85;4.28;;;;;;;;;;5092135;28;20046;-40
2023/10/11 05:01:13;;;;;;;21.40;3.55;;;;;;;;;;5092198;28;20020;-41
2023/10/11 05:03:40;;;;;;;22.52;3.53;;;;;;;;;;5091955;28;20455;-40
2023/10/11 05:06:16;;;;;;;23.30;3.53;;;;;;;;;;5092070;28;20086;-40
2023/10/11 05:08:54;;;;;;;26.92;3.47;;;;;;;;;;5092255;28;20546;-40
2023/10/11 05:11:35;;;;;;;20.67;3.38;;;;;;;;;;5091829;28;20039;-40
2023/10/11 05:16:58;;;;;;;22.20;2.80;;;;;;;;;;5091874;28;20047;-40
2023/10/11 05:19:25;;;;;;;30.42;3.75;;;;;;;;;;5091612;28;20474;-40
2023/10/11 05:21:53;;;;;;;28.02;3.83;;;;;;;;;;5091534;28;20520;-40
2023/10/11 05:24:44;;;;;;;29.02;3.65;;;;;;;;;;5091492;28;20031;-40
2023/10/11 05:32:49;;;;;;;16.65;3.00;;;;;;;;;;5091657;28;20085;-40
2023/10/11 05:51:52;;;;;;;20.33;3.03;;;;;;;;;;5091615;28;20062;-40
2023/10/11 05:54:20;;;;;;;18.55;3.13;;;;;;;;;;5091481;28;20024;-42
2023/10/11 05:56:47;;;;;;;16.17;2.95;;;;;;;;;;5091396;28;20024;-40
2023/10/11 05:59:14;;;;;;;17.35;3.17;;;;;;;;;;5091467;28;20016;-40
2023/10/11 06:01:45;;;;;;;15.32;2.83;;;;;;;;;;5083354;28;20577;-40
2023/10/11 06:04:14;;;;;;;17.98;2.78;;;;;;;;;;5115796;28;20027;-41
2023/10/11 06:06:47;;;;;;;13.43;2.60;;;;;;;;;;5115778;28;20027;-40
2023/10/11 06:09:17;;;;;;;15.43;2.92;;;;;;;;;;5115784;28;20024;-40
2023/10/11 06:11:50;;;;;;;16.65;3.45;;;;;;;;;;5115775;28;20020;-40
2023/10/11 06:14:18;;;;;;;19.13;2.97;;;;;;;;;;5115624;28;20059;-40
2023/10/11 06:16:58;;;;;;;20.02;3.30;;;;;;;;;;5115641;28;20107;-41
2023/10/11 06:19:28;;;;;;;15.50;3.22;;;;;;;;;;5115653;28;20444;-40
2023/10/11 06:21:56;;;;;;;11.15;2.80;;;;;;;;;;5115270;28;20065;-40
2023/10/11 06:24:30;;;;;;;9.50;2.42;;;;;;;;;;5115444;28;20381;-43
2023/10/11 06:28:09;;;;;;;14.10;2.88;;;;;;;;;;5115423;28;20031;-41
2023/10/11 06:29:53;;;;;;;11.65;2.63;;;;;;;;;;5115173;28;20085;-41
2023/10/11 06:32:24;;;;;;;12.63;2.83;;;;;;;;;;5115314;28;20719;-40
2023/10/11 06:34:52;;;;;;;11.73;2.45;;;;;;;;;;5115236;28;20460;-41
2023/10/11 06:37:24;;;;;;;13.82;2.75;;;;;;;;;;5115217;28;20533;-41
2023/10/11 06:42:23;;;;;;;11.32;2.60;;;;;;;;;;5115129;28;20554;-41
2023/10/11 06:44:57;;;;;;;13.77;3.00;;;;;;;;;;5114961;28;20035;-40
2023/10/11 06:47:25;;;;;;;8.35;2.40;;;;;;;;;;5115217;28;20493;-41
2023/10/11 06:49:56;;;;;;;8.85;2.58;;;;;;;;;;5115041;28;20426;-41
2023/10/11 06:52:26;;;;;;;11.32;2.97;;;;;;;;;;5114875;28;20482;-41
2023/10/11 06:55:14;;;;;;;13.27;2.47;;;;;;;;;;5114837;28;20036;-43
2023/10/11 06:57:41;;;;;;;12.18;2.47;;;;;;;;;;5114816;28;20030;-42
2023/10/11 07:00:20;;;;;;;10.35;2.38;;;;;;;;;;5114812;28;20020;-41
2023/10/11 07:02:48;;;;;;;13.18;2.70;;;;;;;;;;5114583;28;20124;-40
2023/10/11 07:05:19;;;;;;;9.25;2.10;;;;;;;;;;5114652;28;20448;-41
2023/10/11 07:07:52;;;;;;;12.10;2.72;;;;;;;;;;5114768;28;20027;-42
2023/10/11 07:10:28;;;;;;;9.07;2.47;;;;;;;;;;5114513;28;20451;-40
2023/10/11 07:13:12;;;;;;;11.18;2.95;;;;;;;;;;5113774;28;20036;-40
2023/10/11 07:15:50;;;;;;;10.30;2.47;;;;;;;;;;5114323;28;20031;-40
2023/10/11 07:18:27;;;;;;;11.82;2.67;;;;;;;;;;5114376;28;20032;-41
2023/10/11 07:21:10;;;;;;;8.23;2.13;;;;;;;;;;5114455;28;20080;-41
2023/10/11 07:24:19;;;;;;;12.30;3.05;;;;;;;;;;5114278;28;20039;-42
2023/10/11 07:29:00;;;;;;;8.32;2.22;;;;;;;;;;5114186;28;20055;-40
2023/10/11 07:31:32;;;;;;;9.45;2.70;;;;;;;;;;5114281;28;20039;-40
2023/10/11 07:33:58;;;;;;;;;;;;;;;;;;5114549;28;20024;-40
2023/10/11 07:36:26;;;;;;;9.30;2.80;;;;;;;;;;5114063;28;19907;-40
2023/10/11 07:38:56;;;;;;;10.65;2.92;;;;;;;;;;5114037;28;20027;-40
2023/10/11 07:41:27;;;;;;;11.60;2.83;;;;;;;;;;5113924;28;20156;-41
2023/10/11 07:43:56;;;;;;;10.32;2.50;;;;;;;;;;5113888;28;20046;-40
2023/10/11 07:46:23;;;;;;;9.13;2.92;;;;;;;;;;5113870;28;20078;-42
2023/10/11 07:51:42;;;;;;;7.57;2.50;;;;;;;;;;5091856;28;20123;-42
2023/10/11 07:54:19;;;;;;;8.18;2.83;;;;;;;;;;5113611;28;20042;-40
2023/10/11 07:56:47;;;;;;;9.63;2.60;;;;;;;;;;5113645;28;20043;-40
2023/10/11 07:59:14;;;;;;;8.43;2.30;;;;;;;;;;5113557;28;20520;-40
2023/10/11 08:01:44;;;;;;;10.18;3.10;;;;;;;;;;5113510;28;20023;-41
2023/10/11 08:04:32;;;;;;;8.30;2.55;;;;;;;;;;5113562;28;20108;-40
2023/10/11 08:06:59;;;;;;;8.50;2.38;;;;;;;;;;5112957;28;20040;-40
2023/10/11 08:09:27;;;;;;;5.82;2.00;;;;;;;;;;5113452;28;20032;-40
2023/10/11 08:11:57;;;;;;;7.72;2.30;;;;;;;;;;5113311;28;20024;-41
2023/10/11 08:14:32;;;;;;;10.82;2.42;;;;;;;;;;5113153;28;20452;-40
2023/10/11 08:16:59;;;;;;;7.35;2.40;;;;;;;;;;5113208;28;20031;-41
2023/10/11 08:19:27;;;;;;;8.35;2.50;;;;;;;;;;5113301;28;20110;-42
2023/10/11 08:21:57;;;;;;;8.75;2.90;;;;;;;;;;5112817;28;20472;-40
2023/10/11 08:24:36;;;;;;;7.10;2.13;;;;;;;;;;5113005;28;20036;-41
2023/10/11 08:27:06;;;;;;;;;;;;;;;;;;5113357;28;20035;-41
2023/10/11 08:29:35;;;;;;;9.27;2.45;;;;;;;;;;5112936;28;19994;-40
2023/10/11 08:32:06;;;;;;;6.45;2.50;;;;;;;;;;5112902;28;20039;-40
2023/10/11 08:34:35;;;;;;;7.03;2.58;;;;;;;;;;5113093;28;20031;-39
2023/10/11 08:37:02;;;;;;;8.30;2.35;;;;;;;;;;5112830;28;20031;-39
2023/10/11 08:39:47;;;;;;;9.15;2.53;;;;;;;;;;5112895;28;20564;-40
2023/10/11 08:42:18;;;;;;;7.60;2.03;;;;;;;;;;5112796;28;20114;-40
2023/10/11 08:44:45;;;;;;;8.95;2.13;;;;;;;;;;5112541;28;20093;-40
2023/10/11 08:47:16;;;;;;;7.88;2.35;;;;;;;;;;5112702;28;20103;-40
2023/10/11 08:49:48;;;;;;;7.47;2.50;;;;;;;;;;5112645;28;20032;-40
2023/10/11 08:52:23;;;;;;;6.55;2.33;;;;;;;;;;5112536;28;20035;-40
2023/10/11 08:54:50;;;;;;;8.25;2.40;;;;;;;;;;5112342;28;20024;-40
2023/10/11 08:57:23;;;;;;;8.57;2.33;;;;;;;;;;5112589;28;20028;-41
2023/10/11 08:59:57;;;;;;;6.57;2.53;;;;;;;;;;5112479;28;20043;-40
2023/10/11 09:02:27;;;;;;;6.07;2.30;;;;;;;;;;5112434;28;20027;-40
2023/10/11 09:05:07;;;;;;;9.63;3.00;;;;;;;;;;5112346;28;20098;-40
2023/10/11 09:07:52;;;;;;;8.85;2.40;;;;;;;;;;5111894;28;20058;-41
2023/10/11 09:10:27;;;;;;;8.30;2.50;;;;;;;;;;5112349;28;20381;-42
2023/10/11 09:12:57;;;;;;;5.82;2.15;;;;;;;;;;5112349;28;20028;-40
2023/10/11 09:15:43;;;;;;;6.25;2.30;;;;;;;;;;5112124;28;20027;-40
2023/10/11 09:18:17;;;;;;;7.32;2.22;;;;;;;;;;5112173;28;20114;-41
2023/10/11 09:20:49;;;;;;;6.47;2.05;;;;;;;;;;5112264;28;20035;-41
2023/10/11 09:23:21;;;;;;;;;;;;;;;;;;5112204;28;20402;-40
2023/10/11 09:26:01;;;;;;;6.25;2.28;;;;;;;;;;5111986;28;19904;-40
2023/10/11 09:28:33;;;;;;;7.50;2.13;;;;;;;;;;5111997;28;20106;-41
2023/10/11 09:31:14;;;;;;;9.00;2.25;;;;;;;;;;5112045;28;20031;-40
2023/10/11 09:33:45;;;;;;;11.20;2.55;;;;;;;;;;5111224;28;20074;-40
2023/10/11 09:36:12;;;;;;;11.55;2.60;;;;;;;;;;5111358;28;20088;-40
2023/10/11 09:38:39;;;;;;;10.10;2.35;;;;;;;;;;5111921;28;20028;-40
2023/10/11 09:41:09;;;;;;;11.05;2.53;;;;;;;;;;5111993;28;20031;-40
2023/10/11 09:43:41;;;;;;;13.20;2.95;;;;;;;;;;5111842;28;20149;-40
2023/10/11 09:46:11;;;;;;;18.17;2.97;;;;;;;;;;5111860;28;20035;-40
2023/10/11 09:48:47;;;;;;;11.02;2.58;;;;;;;;;;5111627;28;20028;-40
2023/10/11 09:51:15;;;;;;;14.55;2.90;;;;;;;;;;5111774;28;20402;-40
2023/10/11 09:53:49;;;;;;;18.42;3.10;;;;;;;;;;5111738;28;20080;-40
2023/10/11 09:56:39;;;;;;;17.45;2.80;;;;;;;;;;5112093;28;20382;-40
2023/10/11 09:59:19;;;;;;;16.17;2.65;;;;;;;;;;5111827;28;20103;-39
2023/10/11 10:02:02;;;;;;;20.80;3.10;;;;;;;;;;5111685;28;20032;-40
2023/10/11 10:04:49;;;;;;;18.73;3.47;;;;;;;;;;5093875;28;20063;-40
2023/10/11 10:07:26;;;;;;;21.98;4.03;;;;;;;;;;5091500;28;20031;-39
2023/10/11 10:09:53;;;;;;;24.23;3.58;;;;;;;;;;5104682;28;20035;-40
2023/10/11 10:12:25;;;;;;;17.98;3.63;;;;;;;;;;5111626;28;20067;-39
2023/10/11 10:15:07;;;;;;;18.80;3.03;;;;;;;;;;5111442;28;20099;-39
2023/10/11 10:17:37;;;;;;;14.57;3.13;;;;;;;;;;5111583;28;20035;-40
2023/10/11 10:20:22;;;;;;;18.25;3.30;;;;;;;;;;5111505;28;20038;-39
2023/10/11 10:23:07;;;;;;;13.63;3.55;;;;;;;;;;5101580;28;20051;-40
2023/10/11 10:25:34;;;;;;;17.25;3.13;;;;;;;;;;5083699;28;20039;-40
2023/10/11 10:28:01;;;;;;;12.00;3.22;;;;;;;;;;5100213;28;20032;-40
2023/10/11 10:30:28;;;;;;;16.35;3.63;;;;;;;;;;5100294;28;20027;-40
2023/10/11 10:33:13;;;;;;;21.17;4.30;;;;;;;;;;5101759;28;20034;-39
2023/10/11 10:35:40;;;;;;;21.23;3.70;;;;;;;;;;5098839;28;20073;-41
2023/10/11 10:38:09;;;;;;;13.80;3.00;;;;;;;;;;5101061;28;20032;-40
2023/10/11 10:40:45;;;;;;;24.85;3.75;;;;;;;;;;5099443;28;20040;-40
2023/10/11 10:43:27;;;;;;;24.58;4.25;;;;;;;;;;5099801;28;20295;-41
2023/10/11 10:46:03;;;;;;;22.23;4.30;;;;;;;;;;5101555;28;20381;-40
2023/10/11 10:48:39;;;;;;;25.38;3.80;;;;;;;;;;5103441;28;20071;-40
2023/10/11 10:51:11;;;;;;;38.22;4.20;;;;;;;;;;5096233;27;20028;-42
2023/10/11 10:53:42;;;;;;;32.75;3.63;;;;;;;;;;5098040;28;20541;-41
2023/10/11 10:56:29;;;;;;;14.02;3.20;;;;;;;;;;5101526;28;20031;-37
2023/10/11 10:59:26;;;;;;;16.55;3.20;;;;;;;;;;5104470;28;20024;-43
2023/10/11 11:01:53;;;;;;;15.43;2.80;;;;;;;;;;5102671;28;20074;-43
2023/10/11 11:04:27;;;;;;;13.48;3.20;;;;;;;;;;5103114;28;20428;-43
2023/10/11 11:06:55;;;;;;;19.27;3.30;;;;;;;;;;5100655;28;20111;-44
2023/10/11 11:09:29;;;;;;;10.90;3.17;;;;;;;;;;5103043;28;20047;-43
2023/10/11 11:12:04;;;;;;;14.43;3.10;;;;;;;;;;5104425;28;20064;-42
2023/10/11 11:14:31;;;;;;;16.58;3.08;;;;;;;;;;5103591;28;20027;-43
2023/10/11 11:16:59;;;;;;;23.00;3.47;;;;;;;;;;5100357;28;20035;-44
2023/10/11 11:19:26;;;;;;;14.02;2.83;;;;;;;;;;5105121;28;20040;-43
2023/10/11 11:22:13;;;;;;;23.85;2.88;;;;;;;;;;5106283;28;20055;-43
2023/10/11 11:24:45;;;;;;;15.70;3.10;;;;;;;;;;5113760;28;20050;-44
2023/10/11 11:27:18;;;;;;;16.42;3.35;;;;;;;;;;5112294;28;20080;-45
2023/10/11 11:29:49;;;;;;;12.25;2.70;;;;;;;;;;5114218;28;20027;-43
2023/10/11 11:32:17;;;;;;;17.27;3.47;;;;;;;;;;5113867;28;20035;-45
2023/10/11 11:35:10;;;;;;;12.35;2.80;;;;;;;;;;5113489;28;20378;-43
2023/10/11 11:37:40;;;;;;;13.38;3.03;;;;;;;;;;5102080;28;20039;-43
2023/10/11 11:40:24;;;;;;;16.73;2.95;;;;;;;;;;5113211;28;20058;-43
2023/10/11 11:42:51;;;;;;;13.68;2.95;;;;;;;;;;5113760;28;20114;-43
2023/10/11 11:45:19;;;;;;;22.25;3.72;;;;;;;;;;5113702;28;20060;-43
2023/10/11 11:47:56;;;;;;;38.63;4.82;;;;;;;;;;5113371;28;20402;-44
2023/10/11 11:50:24;;;;;;;28.13;3.80;;;;;;;;;;5112275;28;20047;-44
2023/10/11 11:52:51;;;;;;;19.10;3.65;;;;;;;;;;5113242;28;20140;-44
2023/10/11 11:55:20;;;;;;;25.08;3.92;;;;;;;;;;5113577;28;20066;-43
2023/10/11 11:57:48;;;;;;;27.55;3.63;;;;;;;;;;5113465;28;20076;-43
2023/10/11 12:02:58;;;;;;;20.77;3.13;;;;;;;;;;5113565;28;20383;-42
2023/10/11 12:05:27;;;;;;;19.25;3.95;;;;;;;;;;5113051;28;20063;-41
2023/10/11 12:07:58;;;;;;;15.63;3.58;;;;;;;;;;5113194;28;20537;-42
2023/10/11 12:10:25;;;;;;;14.63;2.92;;;;;;;;;;5113530;28;20034;-43
2023/10/11 12:12:52;;;;;;;18.35;3.38;;;;;;;;;;5113342;28;20062;-41
2023/10/11 12:15:20;;;;;;;13.40;2.88;;;;;;;;;;5112200;28;20397;-41
2023/10/11 12:17:47;;;;;;;17.67;3.05;;;;;;;;;;5095420;28;20039;-41
2023/10/11 12:20:15;;;;;;;18.23;3.47;;;;;;;;;;5094822;28;20039;-38
2023/10/11 12:22:43;;;;;;;17.23;3.75;;;;;;;;;;5113012;28;20134;-37
2023/10/11 12:25:10;;;;;;;27.15;4.18;;;;;;;;;;5109511;28;20055;-38
2023/10/11 12:27:40;;;;;;;20.60;3.80;;;;;;;;;;5113142;28;20520;-38
2023/10/11 12:30:19;;;;;;;24.48;3.85;;;;;;;;;;5112962;28;20500;-38
2023/10/11 12:32:47;;;;;;;24.77;4.07;;;;;;;;;;5112968;28;20034;-38
2023/10/11 12:35:14;;;;;;;22.65;3.33;;;;;;;;;;5112945;28;20587;-37
2023/10/11 12:37:41;;;;;;;22.85;3.90;;;;;;;;;;5112931;28;20077;-38
2023/10/11 12:40:22;;;;;;;19.40;3.30;;;;;;;;;;5112966;28;20055;-38
2023/10/11 12:42:50;;;;;;;16.42;3.05;;;;;;;;;;5112859;28;20490;-37
2023/10/11 12:45:17;;;;;;;19.67;3.70;;;;;;;;;;5112560;28;20031;-38
2023/10/11 12:47:44;;;;;;;24.52;3.88;;;;;;;;;;5112697;28;20039;-37
2023/10/11 12:50:14;;;;;;;19.58;3.50;;;;;;;;;;5112698;28;20024;-38
2023/10/11 12:52:41;;;;;;;17.98;3.10;;;;;;;;;;5112602;28;20461;-38
2023/10/11 12:55:12;;;;;;;22.38;3.63;;;;;;;;;;5112582;28;20508;-38
2023/10/11 12:57:43;;;;;;;20.30;3.42;;;;;;;;;;5112515;28;20078;-38
2023/10/11 13:03:20;;;;;;;22.05;3.85;;;;;;;;;;5098830;28;20047;-37
2023/10/11 13:05:47;;;;;;;13.68;3.08;;;;;;;;;;5112290;28;20041;-38
2023/10/11 13:08:15;;;;;;;26.55;3.92;;;;;;;;;;5112442;28;20100;-38
2023/10/11 13:10:46;;;;;;;50.75;4.75;;;;;;;;;;5111686;28;20477;-38
2023/10/11 13:13:14;;;;;;;20.23;3.35;;;;;;;;;;5112412;28;20614;-37
2023/10/11 13:15:53;;;;;;;20.90;3.30;;;;;;;;;;5112191;28;20050;-38
2023/10/11 13:18:21;;;;;;;29.27;3.70;;;;;;;;;;5112337;28;20024;-37
2023/10/11 13:20:48;;;;;;;37.17;4.70;;;;;;;;;;5112782;28;20027;-38
2023/10/11 13:23:15;;;;;;;26.25;3.75;;;;;;;;;;5112166;28;20118;-38
2023/10/11 13:25:44;;;;;;;22.95;3.45;;;;;;;;;;5112142;28;20439;-38
2023/10/11 13:28:17;;;;;;;20.45;2.97;;;;;;;;;;5112064;28;20040;-37
2023/10/11 13:30:47;;;;;;;22.58;3.90;;;;;;;;;;5111956;28;20024;-38
2023/10/11 13:33:16;;;;;;;21.08;3.47;;;;;;;;;;5111954;28;20045;-38
2023/10/11 13:35:43;;;;;;;17.95;3.08;;;;;;;;;;5112019;28;20038;-38
2023/10/11 13:38:17;;;;;;;17.80;3.47;;;;;;;;;;5112081;28;20486;-38
2023/10/11 13:40:50;;;;;;;22.38;3.45;;;;;;;;;;5111940;28;20043;-38
2023/10/11 13:43:19;;;;;;;25.55;3.70;;;;;;;;;;5111785;28;20119;-38
2023/10/11 13:45:56;;;;;;;18.80;3.40;;;;;;;;;;5111786;28;20080;-38
2023/10/11 13:48:42;;;;;;;14.00;2.40;;;;;;;;;;5111878;28;20069;-37
2023/10/11 13:51:19;;;;;;;13.98;2.90;;;;;;;;;;5111765;28;20024;-37
2023/10/11 13:53:47;;;;;;;13.18;2.65;;;;;;;;;;5111858;28;20032;-37
2023/10/11 13:56:20;;;;;;;11.20;2.60;;;;;;;;;;5111914;28;20081;-38
2023/10/11 13:58:48;;;;;;;15.48;2.90;;;;;;;;;;5111741;28;20043;-38
2023/10/11 14:04:14;;;;;;;58.33;6.53;;;;;;;;;;5087521;28;20104;-37
2023/10/11 14:06:59;;;;;;;33.95;4.72;;;;;;;;;;5111933;28;20393;-38
2023/10/11 14:09:30;;;;;;;31.23;4.25;;;;;;;;;;5111612;28;20035;-39
2023/10/11 14:11:57;;;;;;;27.55;3.95;;;;;;;;;;5111598;28;20427;-37
2023/10/11 14:14:24;;;;;;;20.45;3.13;;;;;;;;;;5111694;28;20098;-38
2023/10/11 14:16:52;;;;;;;16.83;3.40;;;;;;;;;;5111623;28;20035;-38
2023/10/11 14:19:24;;;;;;;34.22;3.72;;;;;;;;;;5111885;28;20027;-37
2023/10/11 14:21:51;;;;;;;54.15;6.55;;;;;;;;;;5112636;28;20044;-38
2023/10/11 14:24:19;;;;;;;41.55;5.00;;;;;;;;;;5115521;28;20051;-38
2023/10/11 14:26:47;;;;;;;29.38;4.15;;;;;;;;;;5115445;28;20031;-37
2023/10/11 14:29:15;;;;;;;32.28;4.07;;;;;;;;;;5115545;28;20028;-38
2023/10/11 14:31:42;;;;;;;18.50;4.20;;;;;;;;;;5115328;28;20032;-38
2023/10/11 14:34:09;;;;;;;22.88;3.55;;;;;;;;;;5115266;28;20490;-38
2023/10/11 14:36:36;;;;;;;21.40;3.33;;;;;;;;;;5115352;28;20039;-38
2023/10/11 14:39:17;;;;;;;60.45;6.65;;;;;;;;;;5115268;28;20032;-37
2023/10/11 14:41:45;;;;;;;25.23;3.78;;;;;;;;;;5115096;28;20050;-37
2023/10/11 14:44:15;;;;;;;21.98;3.42;;;;;;;;;;5114975;28;20051;-38
2023/10/11 14:46:44;;;;;;;19.35;3.38;;;;;;;;;;5115154;28;20028;-37
2023/10/11 14:49:12;;;;;;;21.58;3.30;;;;;;;;;;5114996;28;20071;-37
2023/10/11 14:51:39;;;;;;;21.65;3.05;;;;;;;;;;5115118;28;20028;-38
2023/10/11 14:54:06;;;;;;;20.63;3.10;;;;;;;;;;5114794;28;20036;-37
2023/10/11 14:56:35;;;;;;;13.57;2.72;;;;;;;;;;5114876;28;20055;-37
2023/10/11 14:59:03;;;;;;;19.20;3.30;;;;;;;;;;5096589;28;20684;-38
2023/10/11 15:01:33;;;;;;;20.35;3.05;;;;;;;;;;5114969;28;20034;-38
2023/10/11 15:04:09;;;;;;;18.48;3.35;;;;;;;;;;5096305;28;20420;-37
2023/10/11 15:06:49;;;;;;;16.33;2.60;;;;;;;;;;5114573;28;20035;-37
2023/10/11 15:09:16;;;;;;;40.53;4.38;;;;;;;;;;5114759;28;20089;-38
2023/10/11 15:11:43;;;;;;;28.92;3.97;;;;;;;;;;5114583;28;20473;-38
2023/10/11 15:14:10;;;;;;;21.77;3.88;;;;;;;;;;5114620;28;20184;-38
2023/10/11 15:16:37;;;;;;;13.32;3.00;;;;;;;;;;5114576;28;20490;-38
2023/10/11 15:19:04;;;;;;;58.15;7.28;;;;;;;;;;5114523;28;20031;-37
2023/10/11 15:21:32;;;;;;;25.35;4.00;;;;;;;;;;5114355;28;20055;-37
2023/10/11 15:23:59;;;;;;;25.33;4.13;;;;;;;;;;5114338;28;20024;-38
2023/10/11 15:26:26;;;;;;;22.42;3.15;;;;;;;;;;5114430;28;20027;-37
2023/10/11 15:28:53;;;;;;;37.42;4.85;;;;;;;;;;5114183;28;20501;-37
2023/10/11 15:31:20;;;;;;;46.00;5.63;;;;;;;;;;5114282;28;20027;-38
2023/10/11 15:33:48;;;;;;;33.65;3.40;;;;;;;;;;5113384;28;20084;-38
2023/10/11 15:36:15;;;;;;;22.38;3.35;;;;;;;;;;5114258;28;20036;-38
2023/10/11 15:38:44;;;;;;;40.40;4.18;;;;;;;;;;5114175;28;20077;-38
2023/10/11 15:41:16;;;;;;;30.25;4.03;;;;;;;;;;5114169;28;20028;-37
2023/10/11 15:43:43;;;;;;;96.45;8.70;;;;;;;;;;5113741;28;20139;-38
2023/10/11 15:46:12;;;;;;;30.75;4.68;;;;;;;;;;5113980;28;20032;-38
2023/10/11 15:48:40;;;;;;;24.05;3.72;;;;;;;;;;5113765;28;20031;-38
2023/10/11 15:51:15;;;;;;;22.02;3.38;;;;;;;;;;5113894;28;20513;-38